Time;durP1;ratioP1;P1;durP2;ratioP2;P2;SDS_P1;SDS_P2;PMS_P1;PMS_P2;Temp;Humidity;BMP_temperature;BMP_pressure;BME280_temperature;BME280_humidity;BME280_pressure;Samples;Min_cycle;Max_cycle;Signal;HPM_P1;HPM_P2
2023/05/02 00:00:27;;;;;;;1999.90;999.90;;;8.20;99.90;;;;;;5070068;28;20024;-75
2023/05/02 00:02:52;;;;;;;1999.90;999.90;;;8.10;99.90;;;;;;5072502;28;20071;-75
2023/05/02 00:05:18;;;;;;;1999.90;999.90;;;8.10;99.90;;;;;;5073698;28;20475;-75
2023/05/02 00:07:44;;;;;;;1999.90;999.90;;;8.10;99.90;;;;;;5052713;28;20028;-75
2023/05/02 00:10:10;;;;;;;1999.90;999.90;;;8.10;99.90;;;;;;5053940;28;20558;-76
2023/05/02 00:12:35;;;;;;;1999.90;999.90;;;8.00;99.90;;;;;;5051450;28;20036;-76
2023/05/02 00:15:01;;;;;;;1999.90;999.90;;;8.00;99.90;;;;;;5054265;28;20032;-75
2023/05/02 00:17:27;;;;;;;1999.90;999.90;;;7.90;99.90;;;;;;5072688;28;20106;-75
2023/05/02 00:19:52;;;;;;;1999.90;999.90;;;7.90;99.90;;;;;;5070516;28;20057;-75
2023/05/02 00:22:18;;;;;;;1999.90;999.90;;;7.90;99.90;;;;;;5073752;28;20055;-76
2023/05/02 00:24:44;;;;;;;1999.90;999.90;;;7.90;99.90;;;;;;5042511;28;20529;-76
2023/05/02 00:27:10;;;;;;;1999.90;999.90;;;7.80;99.90;;;;;;5042702;28;20041;-76
2023/05/02 00:29:36;;;;;;;1999.90;999.90;;;7.80;99.90;;;;;;5058065;28;20032;-76
2023/05/02 00:32:01;;;;;;;1999.90;999.90;;;7.80;99.90;;;;;;5040067;28;20146;-75
2023/05/02 00:34:30;;;;;;;1999.90;999.90;;;7.80;99.90;;;;;;5040359;28;20099;-75
2023/05/02 00:36:56;;;;;;;1999.90;999.90;;;7.80;99.90;;;;;;5064904;28;20120;-75
2023/05/02 00:39:22;;;;;;;1999.90;999.90;;;7.70;99.90;;;;;;5073957;28;20119;-75
2023/05/02 00:41:47;;;;;;;1999.90;999.90;;;7.70;99.90;;;;;;5071779;28;20083;-75
2023/05/02 00:44:13;;;;;;;1999.90;999.90;;;7.70;99.90;;;;;;5075386;28;20465;-76
2023/05/02 00:46:39;;;;;;;1999.90;999.90;;;7.70;99.90;;;;;;5070654;28;20147;-75
2023/05/02 00:49:05;;;;;;;1999.90;999.90;;;7.60;99.90;;;;;;5051860;28;20041;-76
2023/05/02 00:51:33;;;;;;;1999.90;999.90;;;7.60;99.90;;;;;;5039166;28;20450;-76
2023/05/02 00:54:00;;;;;;;1999.90;999.90;;;7.50;99.90;;;;;;5068754;28;20147;-76
2023/05/02 00:56:26;;;;;;;1999.90;999.90;;;7.50;99.90;;;;;;5051277;28;20031;-75
2023/05/02 00:58:53;;;;;;;1999.90;999.90;;;7.50;99.90;;;;;;5069685;28;20024;-75
2023/05/02 01:01:28;;;;;;;1999.90;999.90;;;7.60;99.90;;;;;;5049331;28;20033;-76
2023/05/02 01:04:22;;;;;;;1999.90;999.90;;;7.60;99.90;;;;;;5062670;28;20430;-75
2023/05/02 01:07:09;;;;;;;1999.90;999.90;;;7.60;99.90;;;;;;5070782;28;20066;-76
2023/05/02 01:10:03;;;;;;;1999.90;999.90;;;7.60;99.90;;;;;;5053393;28;20025;-75
2023/05/02 01:12:40;;;;;;;1999.90;999.90;;;7.60;99.90;;;;;;5074916;28;20034;-75
2023/05/02 01:15:21;;;;;;;1999.90;999.90;;;7.60;99.90;;;;;;5065392;28;20024;-76
2023/05/02 01:17:49;;;;;;;1999.90;999.90;;;7.60;99.90;;;;;;5069280;28;20047;-75
2023/05/02 01:20:19;;;;;;;1999.90;999.90;;;7.50;99.90;;;;;;5067048;28;20115;-76
2023/05/02 01:22:46;;;;;;;1999.90;999.90;;;7.50;99.90;;;;;;5069891;28;20840;-75
2023/05/02 01:25:15;;;;;;;1999.90;999.90;;;7.60;99.90;;;;;;5067194;28;20044;-75
2023/05/02 01:28:12;;;;;;;1999.90;999.90;;;7.60;99.90;;;;;;5073933;28;20119;-75
2023/05/02 01:30:42;;;;;;;1999.90;999.90;;;7.60;99.90;;;;;;5067535;28;20604;-75
2023/05/02 01:33:10;;;;;;;1999.90;999.90;;;7.70;99.90;;;;;;5054970;28;20043;-74
2023/05/02 01:35:36;;;;;;;1999.90;999.90;;;7.70;99.90;;;;;;5068619;28;20029;-75
2023/05/02 01:38:04;;;;;;;1999.90;999.90;;;7.70;99.90;;;;;;5071083;28;20048;-75
2023/05/02 01:40:33;;;;;;;1999.90;999.90;;;7.70;99.90;;;;;;5067885;28;20090;-75
2023/05/02 01:42:59;;;;;;;1999.90;999.90;;;7.80;99.90;;;;;;5057026;28;20036;-76
2023/05/02 01:45:28;;;;;;;1999.90;999.90;;;7.80;99.90;;;;;;5070829;28;20866;-76
2023/05/02 01:47:53;;;;;;;1999.90;999.90;;;7.70;99.90;;;;;;5051900;28;20129;-75
2023/05/02 01:50:23;;;;;;;1999.90;999.90;;;7.70;99.90;;;;;;5068982;28;20028;-76
2023/05/02 01:52:52;;;;;;;1999.90;999.90;;;7.60;99.90;;;;;;5063358;28;20048;-75
2023/05/02 01:55:18;;;;;;;1999.90;999.90;;;7.60;99.90;;;;;;5075817;28;20028;-76
2023/05/02 01:57:46;;;;;;;1999.90;999.90;;;7.60;99.90;;;;;;5054340;28;20040;-76
2023/05/02 02:00:15;;;;;;;1999.90;999.90;;;7.60;99.90;;;;;;5078095;28;20032;-76
2023/05/02 02:02:42;;;;;;;1999.90;999.90;;;7.60;99.90;;;;;;5076690;28;20033;-75
2023/05/02 02:05:09;;;;;;;1999.90;999.90;;;7.60;99.90;;;;;;5074682;28;20032;-75
2023/05/02 02:07:35;;;;;;;1999.90;999.90;;;7.50;99.90;;;;;;5059871;28;20028;-75
2023/05/02 02:10:01;;;;;;;1999.90;999.90;;;7.50;99.90;;;;;;5068107;28;20039;-75
2023/05/02 02:12:34;;;;;;;1999.90;999.90;;;7.50;99.90;;;;;;5056275;28;20029;-76
2023/05/02 02:15:09;;;;;;;1999.90;999.90;;;7.40;99.90;;;;;;5069600;28;20029;-76
2023/05/02 02:18:12;;;;;;;1999.90;999.90;;;7.40;99.90;;;;;;5074186;28;20430;-75
2023/05/02 02:20:42;;;;;;;1999.90;999.90;;;7.40;99.90;;;;;;5047393;28;20040;-75
2023/05/02 02:23:09;;;;;;;1999.90;999.90;;;7.40;99.90;;;;;;5068763;28;20029;-75
2023/05/02 02:25:36;;;;;;;1999.90;999.90;;;7.40;99.90;;;;;;5053379;28;20099;-75
2023/05/02 02:28:01;;;;;;;1999.90;999.90;;;7.40;99.90;;;;;;5080412;28;20020;-75
2023/05/02 02:30:27;;;;;;;1999.90;999.90;;;7.50;99.90;;;;;;5053218;28;20367;-75
2023/05/02 02:32:53;;;;;;;1999.90;999.90;;;7.40;99.90;;;;;;5076940;28;20068;-74
2023/05/02 02:35:20;;;;;;;1999.90;999.90;;;7.40;99.90;;;;;;5053322;28;20133;-74
2023/05/02 02:37:56;;;;;;;1999.90;999.90;;;7.40;99.90;;;;;;5057865;28;20494;-74
2023/05/02 02:40:25;;;;;;;1999.90;999.90;;;7.40;99.90;;;;;;5075239;28;20111;-75
2023/05/02 02:43:16;;;;;;;1999.90;999.90;;;7.40;99.90;;;;;;5052723;28;20410;-75
2023/05/02 02:45:51;;;;;;;1999.90;999.90;;;7.40;99.90;;;;;;5073830;28;20032;-75
2023/05/02 02:48:44;;;;;;;1999.90;999.90;;;7.30;99.90;;;;;;5064388;28;20060;-75
2023/05/02 02:51:21;;;;;;;1999.90;999.90;;;7.30;99.90;;;;;;5040354;28;20039;-75
2023/05/02 02:54:19;;;;;;;1999.90;999.90;;;7.30;99.90;;;;;;5065280;28;20086;-76
2023/05/02 02:56:47;;;;;;;1999.90;999.90;;;7.30;99.90;;;;;;5072147;28;20035;-75
2023/05/02 02:59:30;;;;;;;1999.90;999.90;;;7.30;99.90;;;;;;5070268;28;20085;-75
2023/05/02 03:02:07;;;;;;;1999.90;999.90;;;7.20;99.90;;;;;;5072605;28;20033;-75
2023/05/02 03:04:36;;;;;;;1999.90;999.90;;;7.20;99.90;;;;;;5049657;28;20032;-75
2023/05/02 03:07:02;;;;;;;1999.90;999.90;;;7.20;99.90;;;;;;5054881;28;20024;-76
2023/05/02 03:09:40;;;;;;;1999.90;999.90;;;7.20;99.90;;;;;;5063146;28;20029;-76
2023/05/02 03:12:05;;;;;;;1999.90;999.90;;;7.30;99.90;;;;;;5066958;28;20025;-75
2023/05/02 03:14:31;;;;;;;1999.90;999.90;;;7.30;99.90;;;;;;5054446;28;20063;-76
2023/05/02 03:16:57;;;;;;;1999.90;999.90;;;7.30;99.90;;;;;;5059698;28;20425;-75
2023/05/02 03:19:22;;;;;;;1999.90;999.90;;;7.30;99.90;;;;;;5070544;28;20501;-75
2023/05/02 03:21:48;;;;;;;1999.90;999.90;;;7.30;99.90;;;;;;5065322;28;20109;-77
2023/05/02 03:24:14;;;;;;;1999.90;999.90;;;7.30;99.90;;;;;;5066101;28;20045;-76
2023/05/02 03:26:40;;;;;;;1999.90;999.90;;;7.20;99.90;;;;;;5075532;28;20041;-76
2023/05/02 03:29:05;;;;;;;1999.90;999.90;;;7.20;99.90;;;;;;5041754;28;20025;-76
2023/05/02 03:31:31;;;;;;;1999.90;999.90;;;7.20;99.90;;;;;;5060371;28;20115;-76
2023/05/02 03:33:56;;;;;;;1999.90;999.90;;;7.20;99.90;;;;;;5070111;28;20024;-76
2023/05/02 03:36:22;;;;;;;1999.90;999.90;;;7.10;99.90;;;;;;5059186;28;20479;-76
2023/05/02 03:38:48;;;;;;;1999.90;999.90;;;7.20;99.90;;;;;;5072770;28;20040;-75
2023/05/02 03:41:13;;;;;;;1999.90;999.90;;;7.10;99.90;;;;;;5065289;28;20035;-76
2023/05/02 03:43:39;;;;;;;1999.90;999.90;;;7.10;99.90;;;;;;5072060;28;20034;-75
2023/05/02 03:46:07;;;;;;;1999.90;999.90;;;7.10;99.90;;;;;;5074300;28;20101;-75
2023/05/02 03:48:33;;;;;;;1999.90;999.90;;;7.10;99.90;;;;;;5073435;28;20029;-75
2023/05/02 03:51:01;;;;;;;1999.90;999.90;;;7.20;99.90;;;;;;5058093;28;20029;-75
2023/05/02 03:53:26;;;;;;;1999.90;999.90;;;7.30;99.90;;;;;;5058767;28;20128;-76
2023/05/02 03:55:53;;;;;;;1999.90;999.90;;;7.40;99.90;;;;;;5062696;28;20135;-76
2023/05/02 03:58:18;;;;;;;1999.90;999.90;;;7.40;99.90;;;;;;5059542;28;20036;-76
2023/05/02 04:00:44;;;;;;;1999.90;999.90;;;7.50;99.90;;;;;;5047837;28;20024;-74
2023/05/02 04:03:10;;;;;;;1999.90;999.90;;;7.50;99.90;;;;;;5059069;28;20097;-74
2023/05/02 04:05:35;;;;;;;1999.90;999.90;;;7.50;99.90;;;;;;5045980;28;20040;-75
2023/05/02 04:08:02;;;;;;;1999.90;999.90;;;7.40;99.90;;;;;;5072211;28;20064;-74
2023/05/02 04:10:27;;;;;;;1999.90;999.90;;;7.40;99.90;;;;;;5055350;28;20039;-75
2023/05/02 04:12:53;;;;;;;1999.90;999.90;;;7.40;99.90;;;;;;5056575;28;20036;-75
2023/05/02 04:15:19;;;;;;;1999.90;999.90;;;7.40;99.90;;;;;;5068165;28;20047;-76
2023/05/02 04:17:45;;;;;;;1999.90;999.90;;;7.50;99.90;;;;;;5054122;28;20056;-74
2023/05/02 04:20:11;;;;;;;1999.90;999.90;;;7.50;99.90;;;;;;5039723;28;20047;-76
2023/05/02 04:22:38;;;;;;;1999.90;999.90;;;7.60;99.90;;;;;;5066967;28;20033;-72
2023/05/02 04:25:05;;;;;;;1999.90;999.90;;;7.60;99.90;;;;;;5070992;28;20091;-74
2023/05/02 04:27:31;;;;;;;1999.90;999.90;;;7.70;99.90;;;;;;5041387;28;20127;-71
2023/05/02 04:29:57;;;;;;;1999.90;999.90;;;7.70;99.90;;;;;;5059464;28;20056;-74
2023/05/02 04:32:23;;;;;;;1999.90;999.90;;;7.70;99.90;;;;;;5069255;28;20043;-74
2023/05/02 04:34:48;;;;;;;1999.90;999.90;;;7.70;99.90;;;;;;5075257;28;20024;-74
2023/05/02 04:37:14;;;;;;;1999.90;999.90;;;7.80;99.90;;;;;;5064138;28;20058;-74
2023/05/02 04:39:40;;;;;;;1999.90;999.90;;;7.80;99.90;;;;;;5072617;28;20089;-74
2023/05/02 04:42:06;;;;;;;1999.90;999.90;;;7.90;99.90;;;;;;5065506;28;20040;-79
2023/05/02 04:44:31;;;;;;;1999.90;999.90;;;8.00;99.90;;;;;;5059559;28;20028;-76
2023/05/02 04:46:57;;;;;;;1999.90;999.90;;;8.10;99.90;;;;;;5073085;28;20037;-78
2023/05/02 04:49:22;;;;;;;1999.90;999.90;;;8.10;99.90;;;;;;5042966;28;20035;-78
2023/05/02 04:51:48;;;;;;;1999.90;999.90;;;8.10;99.90;;;;;;5059305;28;20436;-77
2023/05/02 04:54:14;;;;;;;1999.90;999.90;;;8.30;99.90;;;;;;5077355;28;20078;-79
2023/05/02 04:56:40;;;;;;;1999.90;999.90;;;8.30;99.90;;;;;;5048412;28;20414;-78
2023/05/02 04:59:05;;;;;;;1999.90;999.90;;;8.40;99.90;;;;;;5071875;28;20418;-76
2023/05/02 05:01:32;;;;;;;1999.90;999.90;;;8.60;99.90;;;;;;5055528;28;20032;-78
2023/05/02 05:03:57;;;;;;;1999.90;999.90;;;8.60;99.90;;;;;;5055932;28;20060;-77
2023/05/02 05:06:23;;;;;;;1999.90;999.90;;;8.70;99.90;;;;;;5065052;28;20052;-80
2023/05/02 05:08:49;;;;;;;1999.90;999.90;;;8.70;99.90;;;;;;5050236;28;20055;-78
2023/05/02 05:11:16;;;;;;;1999.90;999.90;;;8.80;99.90;;;;;;5060164;28;20038;-78
2023/05/02 05:13:41;;;;;;;1999.90;999.90;;;8.80;99.90;;;;;;5074350;28;20042;-77
2023/05/02 05:16:07;;;;;;;1999.90;999.90;;;9.00;99.90;;;;;;5073380;28;20028;-78
2023/05/02 05:18:39;;;;;;;1999.90;999.90;;;9.00;99.90;;;;;;5059729;28;20040;-78
2023/05/02 05:21:09;;;;;;;1999.90;999.90;;;9.10;99.90;;;;;;5043829;28;20033;-78
2023/05/02 05:23:35;;;;;;;1999.90;999.90;;;9.00;99.90;;;;;;5070183;28;20043;-78
2023/05/02 05:26:15;;;;;;;1999.90;999.90;;;8.90;99.90;;;;;;5052703;28;20049;-79
2023/05/02 05:28:41;;;;;;;1999.90;999.90;;;8.90;99.90;;;;;;5050479;28;20349;-78
2023/05/02 05:31:08;;;;;;;1999.90;999.90;;;8.90;99.90;;;;;;5068189;28;20024;-78
2023/05/02 05:33:38;;;;;;;1999.90;999.90;;;8.80;99.90;;;;;;5056568;28;20112;-77
2023/05/02 05:36:08;;;;;;;1999.90;999.90;;;8.80;99.90;;;;;;5072324;28;20024;-80
2023/05/02 05:38:34;;;;;;;1999.90;999.90;;;8.90;99.90;;;;;;5073427;28;20546;-79
2023/05/02 05:41:00;;;;;;;1999.90;999.90;;;8.90;99.90;;;;;;5075959;28;20044;-77
2023/05/02 05:43:26;;;;;;;1999.90;999.90;;;9.00;99.90;;;;;;5038286;28;20028;-76
2023/05/02 05:45:53;;;;;;;1999.90;999.90;;;9.10;99.90;;;;;;5061256;28;20035;-78
2023/05/02 05:48:18;;;;;;;1999.90;999.90;;;9.30;99.90;;;;;;5056307;28;20027;-78
2023/05/02 05:50:44;;;;;;;1999.90;999.90;;;9.40;99.90;;;;;;5071415;28;20020;-78
2023/05/02 05:53:12;;;;;;;1999.90;999.90;;;9.30;99.90;;;;;;5056796;28;20024;-77
2023/05/02 05:55:38;;;;;;;1999.90;999.90;;;9.50;99.90;;;;;;5075826;28;20338;-79
2023/05/02 05:58:04;;;;;;;1999.90;999.90;;;9.60;99.90;;;;;;5056026;28;20040;-79
2023/05/02 06:00:33;;;;;;;1999.90;999.90;;;9.80;99.90;;;;;;5072856;28;20445;-76
2023/05/02 06:02:59;;;;;;;1999.90;999.90;;;9.90;99.90;;;;;;5071609;28;20390;-74
2023/05/02 06:05:24;;;;;;;1999.90;999.90;;;10.00;99.90;;;;;;5075734;28;20027;-76
2023/05/02 06:07:50;;;;;;;1999.90;999.90;;;10.00;99.90;;;;;;5037258;28;20036;-76
2023/05/02 06:10:15;;;;;;;1999.90;999.90;;;10.10;99.90;;;;;;5040838;28;20060;-76
2023/05/02 06:12:41;;;;;;;1999.90;999.90;;;10.10;99.90;;;;;;5067160;28;20032;-76
2023/05/02 06:15:07;;;;;;;1999.90;999.90;;;10.10;98.70;;;;;;5072802;28;20045;-76
2023/05/02 06:17:33;;;;;;;1999.90;999.90;;;10.20;97.60;;;;;;5052183;28;20041;-76
2023/05/02 06:19:58;;;;;;;1999.90;999.90;;;10.40;96.80;;;;;;5058027;28;20036;-76
2023/05/02 06:22:24;;;;;;;1999.90;999.90;;;10.50;96.60;;;;;;5071157;28;20028;-76
2023/05/02 06:24:50;;;;;;;1999.90;999.90;;;10.60;95.90;;;;;;5040486;28;20052;-76
2023/05/02 06:27:15;;;;;;;1999.90;999.90;;;10.70;96.70;;;;;;5012841;28;20125;-76
2023/05/02 06:29:41;;;;;;;1999.90;999.90;;;10.60;94.80;;;;;;5032804;28;20037;-76
2023/05/02 06:32:07;;;;;;;1999.90;999.90;;;10.40;93.80;;;;;;5027336;28;20038;-76
2023/05/02 06:34:32;;;;;;;1999.90;999.90;;;10.40;94.30;;;;;;5034219;28;20117;-76
2023/05/02 06:36:58;;;;;;;1999.90;999.90;;;10.60;94.40;;;;;;5032820;28;20033;-76
2023/05/02 06:39:24;;;;;;;1999.90;999.90;;;10.60;93.80;;;;;;5029249;28;20526;-76
2023/05/02 06:41:50;;;;;;;1999.90;999.90;;;10.80;94.10;;;;;;5032441;28;20040;-77
2023/05/02 06:44:16;;;;;;;1999.90;999.90;;;11.00;93.90;;;;;;5039638;28;20044;-76
2023/05/02 06:46:42;;;;;;;1999.90;999.90;;;11.00;93.30;;;;;;5034892;28;20488;-77
2023/05/02 06:49:07;;;;;;;1999.90;999.90;;;11.00;93.90;;;;;;5034413;28;20036;-77
2023/05/02 06:51:33;;;;;;;1999.90;999.90;;;11.00;92.90;;;;;;5027178;28;20104;-77
2023/05/02 06:53:59;;;;;;;1999.90;999.90;;;10.90;92.30;;;;;;5025818;28;20087;-77
2023/05/02 06:56:25;;;;;;;1999.90;999.90;;;11.00;92.30;;;;;;5023346;28;20029;-77
2023/05/02 06:58:51;;;;;;;1999.90;999.90;;;11.20;91.80;;;;;;5038361;28;20317;-77
2023/05/02 07:01:17;;;;;;;1999.90;999.90;;;11.40;92.10;;;;;;5029342;28;20041;-77
2023/05/02 07:03:43;;;;;;;1999.90;999.90;;;11.30;90.20;;;;;;5030207;28;20026;-76
2023/05/02 07:06:08;;;;;;;1999.90;999.90;;;11.60;92.60;;;;;;5030752;28;20495;-77
2023/05/02 07:08:34;;;;;;;1999.90;999.90;;;12.00;90.30;;;;;;5041554;28;20392;-77
2023/05/02 07:11:02;;;;;;;1999.90;999.90;;;12.20;90.30;;;;;;5027477;28;20036;-75
2023/05/02 07:13:27;;;;;;;1999.90;999.90;;;12.20;88.50;;;;;;5009765;28;20061;-76
2023/05/02 07:15:53;;;;;;;1999.90;999.90;;;12.40;87.30;;;;;;5036038;28;20491;-76
2023/05/02 07:18:20;;;;;;;1999.90;999.90;;;12.30;86.20;;;;;;5027854;28;20034;-77
2023/05/02 07:20:46;;;;;;;1999.90;999.90;;;12.50;86.30;;;;;;5021752;28;20115;-74
2023/05/02 07:23:11;;;;;;;1999.90;999.90;;;12.30;85.50;;;;;;5030917;28;20507;-81
2023/05/02 07:25:38;;;;;;;1999.90;999.90;;;12.60;85.00;;;;;;5061540;28;20158;-77
2023/05/02 07:28:04;;;;;;;1999.90;999.90;;;12.70;83.30;;;;;;5064675;28;20422;-75
2023/05/02 07:30:30;;;;;;;1999.90;999.90;;;12.60;84.20;;;;;;5073167;28;20029;-75
2023/05/02 07:32:56;;;;;;;1999.90;999.90;;;12.70;85.10;;;;;;5044163;28;20636;-75
2023/05/02 07:35:21;;;;;;;1999.90;999.90;;;12.90;84.20;;;;;;5071803;28;20044;-75
2023/05/02 07:37:47;;;;;;;1999.90;999.90;;;12.90;83.80;;;;;;5071042;28;20685;-76
2023/05/02 07:40:13;;;;;;;1999.90;999.90;;;13.10;84.50;;;;;;5068547;28;20390;-78
2023/05/02 07:42:40;;;;;;;1999.90;999.90;;;13.00;84.00;;;;;;5058487;28;20491;-78
2023/05/02 07:45:07;;;;;;;1999.90;999.90;;;12.80;83.30;;;;;;5065447;28;20613;-78
2023/05/02 07:47:32;;;;;;;1999.90;999.90;;;12.90;83.20;;;;;;5034836;28;20071;-78
2023/05/02 07:49:58;;;;;;;1999.90;999.90;;;12.60;83.40;;;;;;5071395;28;20060;-78
2023/05/02 07:52:24;;;;;;;1999.90;999.90;;;12.40;83.60;;;;;;5060270;28;20036;-78
2023/05/02 07:54:51;;;;;;;1999.90;999.90;;;12.60;83.70;;;;;;5070406;28;20036;-78
2023/05/02 07:57:17;;;;;;;1999.90;999.90;;;12.40;83.80;;;;;;5074826;28;20040;-78
2023/05/02 07:59:43;;;;;;;1999.90;999.90;;;12.30;84.10;;;;;;5076016;28;20115;-78
2023/05/02 08:02:12;;;;;;;1999.90;999.90;;;12.30;84.80;;;;;;5072377;28;20166;-78
2023/05/02 08:04:39;;;;;;;1999.90;999.90;;;12.10;85.50;;;;;;5068502;28;20036;-78
2023/05/02 08:07:05;;;;;;;1999.90;999.90;;;12.20;86.60;;;;;;5074686;28;20035;-79
2023/05/02 08:09:31;;;;;;;1999.90;999.90;;;12.20;86.70;;;;;;5057244;28;20059;-78
2023/05/02 08:11:57;;;;;;;1999.90;999.90;;;12.00;85.10;;;;;;5073288;28;20445;-77
2023/05/02 08:14:22;;;;;;;1999.90;999.90;;;12.00;85.80;;;;;;5058286;28;20119;-77
2023/05/02 08:16:48;;;;;;;1999.90;999.90;;;12.00;84.70;;;;;;5072359;28;20036;-77
2023/05/02 08:19:14;;;;;;;1999.90;999.90;;;12.20;84.60;;;;;;5054685;28;20093;-77
2023/05/02 08:21:41;;;;;;;1999.90;999.90;;;12.40;84.10;;;;;;5070207;28;20034;-78
2023/05/02 08:24:06;;;;;;;1999.90;999.90;;;12.60;82.50;;;;;;5068311;28;20596;-77
2023/05/02 08:26:32;;;;;;;1999.90;999.90;;;12.70;82.60;;;;;;5070469;28;20028;-77
2023/05/02 08:28:58;;;;;;;1999.90;999.90;;;12.80;82.40;;;;;;5061220;28;20482;-77
2023/05/02 08:31:24;;;;;;;1999.90;999.90;;;12.80;82.20;;;;;;5067435;28;20041;-77
2023/05/02 08:33:50;;;;;;;1999.90;999.90;;;13.00;81.20;;;;;;5060499;28;20406;-77
2023/05/02 08:36:17;;;;;;;1999.90;999.90;;;13.00;81.50;;;;;;5062918;28;20028;-77
2023/05/02 08:38:44;;;;;;;1999.90;999.90;;;13.20;81.50;;;;;;5056072;28;20032;-74
2023/05/02 08:41:14;;;;;;;1999.90;999.90;;;13.40;80.00;;;;;;5072730;28;20119;-75
2023/05/02 08:43:40;;;;;;;1999.90;999.90;;;13.60;80.70;;;;;;5061269;28;20044;-75
2023/05/02 08:46:09;;;;;;;1999.90;999.90;;;13.60;80.30;;;;;;5058308;28;20101;-75
2023/05/02 08:48:37;;;;;;;1999.90;999.90;;;13.40;78.70;;;;;;5067560;28;20032;-75
2023/05/02 08:51:04;;;;;;;1999.90;999.90;;;13.30;79.50;;;;;;5069502;28;20111;-76
2023/05/02 08:53:37;;;;;;;1999.90;999.90;;;13.70;78.50;;;;;;5059955;28;20024;-76
2023/05/02 08:56:03;;;;;;;1999.90;999.90;;;13.60;78.10;;;;;;5052930;28;20043;-75
2023/05/02 08:58:32;;;;;;;1999.90;999.90;;;13.40;78.20;;;;;;5066662;28;20051;-75
2023/05/02 09:01:03;;;;;;;1999.90;999.90;;;13.40;79.10;;;;;;5074624;28;20063;-75
2023/05/02 09:03:34;;;;;;;1999.90;999.90;;;13.60;80.30;;;;;;5055091;28;20546;-75
2023/05/02 09:06:12;;;;;;;1999.90;999.90;;;13.80;79.70;;;;;;5066308;28;20102;-75
2023/05/02 09:08:41;;;;;;;1999.90;999.90;;;13.80;81.30;;;;;;5058491;28;20020;-75
2023/05/02 09:11:09;;;;;;;1999.90;999.90;;;13.70;78.60;;;;;;5039446;28;20028;-75
2023/05/02 09:13:40;;;;;;;1999.90;999.90;;;13.70;78.90;;;;;;5071541;28;20554;-75
2023/05/02 09:16:14;;;;;;;1999.90;999.90;;;13.60;78.70;;;;;;5069871;28;20091;-76
2023/05/02 09:18:45;;;;;;;1999.90;999.90;;;13.90;79.60;;;;;;5074261;28;20514;-77
2023/05/02 09:21:18;;;;;;;1999.90;999.90;;;14.40;77.30;;;;;;5069023;28;20036;-77
2023/05/02 09:23:45;;;;;;;1999.90;999.90;;;14.70;75.40;;;;;;5071672;28;20031;-77
2023/05/02 09:26:10;;;;;;;1999.90;999.90;;;14.90;75.00;;;;;;5057286;28;20025;-78
2023/05/02 09:28:59;;;;;;;1999.90;999.90;;;15.40;72.00;;;;;;5074097;28;20085;-78
2023/05/02 09:31:35;;;;;;;1999.90;999.90;;;15.70;72.00;;;;;;5070844;28;20025;-77
2023/05/02 09:34:12;;;;;;;1999.90;999.90;;;15.10;71.60;;;;;;5066850;28;20037;-77
2023/05/02 09:36:46;;;;;;;1999.90;999.90;;;15.90;71.70;;;;;;5054930;28;20107;-77
2023/05/02 09:39:15;;;;;;;1999.90;999.90;;;16.50;69.60;;;;;;5066398;28;20036;-77
2023/05/02 09:41:42;;;;;;;1999.90;999.90;;;16.60;70.60;;;;;;5073969;28;20044;-77
2023/05/02 09:44:12;;;;;;;1999.90;999.90;;;17.40;70.50;;;;;;5069545;28;20033;-77
2023/05/02 09:46:46;;;;;;;1999.90;999.90;;;17.90;65.70;;;;;;5055912;28;20556;-77
2023/05/02 09:49:13;;;;;;;1999.90;999.90;;;16.90;64.30;;;;;;5070137;28;20037;-79
2023/05/02 09:51:39;;;;;;;1999.90;999.90;;;16.10;66.80;;;;;;5054362;28;20476;-80
2023/05/02 09:54:05;;;;;;;1999.90;999.90;;;15.70;68.10;;;;;;5057705;28;20315;-79
2023/05/02 09:56:50;;;;;;;1999.90;999.90;;;15.20;69.90;;;;;;5069096;28;20556;-78
2023/05/02 09:59:16;;;;;;;1999.90;999.90;;;15.10;72.00;;;;;;5072539;28;20032;-79
2023/05/02 10:01:42;;;;;;;1999.90;999.90;;;14.70;71.50;;;;;;5049995;28;20042;-78
2023/05/02 10:04:15;;;;;;;1999.90;999.90;;;14.20;73.80;;;;;;5064359;28;20064;-78
2023/05/02 10:06:43;;;;;;;1999.90;999.90;;;13.90;75.60;;;;;;5054847;28;20037;-79
2023/05/02 10:09:10;;;;;;;1999.90;999.90;;;13.70;76.40;;;;;;5049487;28;20044;-79
2023/05/02 10:11:39;;;;;;;1999.90;999.90;;;13.40;77.60;;;;;;5068903;28;20032;-78
2023/05/02 10:14:08;;;;;;;1999.90;999.90;;;13.60;76.40;;;;;;5032837;28;20032;-77
2023/05/02 10:16:37;;;;;;;1999.90;999.90;;;13.50;77.80;;;;;;5073216;28;20028;-76
2023/05/02 10:19:08;;;;;;;1999.90;999.90;;;13.50;79.50;;;;;;5054159;28;20036;-76
2023/05/02 10:21:35;;;;;;;1999.90;999.90;;;13.40;80.80;;;;;;5081345;28;20028;-76
2023/05/02 10:24:05;;;;;;;1999.90;999.90;;;13.40;79.90;;;;;;5081297;28;20038;-76
2023/05/02 10:26:34;;;;;;;1999.90;999.90;;;13.20;80.70;;;;;;5076644;28;20537;-77
2023/05/02 10:29:00;;;;;;;1999.90;999.90;;;13.40;79.90;;;;;;5078616;28;20036;-77
2023/05/02 10:31:32;;;;;;;1999.90;999.90;;;13.40;79.90;;;;;;5062250;28;20028;-77
2023/05/02 10:34:00;;;;;;;1999.90;999.90;;;13.40;77.50;;;;;;5055349;28;20043;-77
2023/05/02 10:36:27;;;;;;;1999.90;999.90;;;13.30;78.60;;;;;;5075624;28;20055;-78
2023/05/02 10:38:54;;;;;;;1999.90;999.90;;;13.50;77.10;;;;;;5073079;28;20032;-77
2023/05/02 10:41:22;;;;;;;1999.90;999.90;;;13.70;77.50;;;;;;5071895;28;20024;-77
2023/05/02 10:43:48;;;;;;;1999.90;999.90;;;14.20;76.10;;;;;;5053006;28;20039;-77
2023/05/02 10:46:40;;;;;;;1999.90;999.90;;;14.30;73.70;;;;;;5071009;28;20102;-77
2023/05/02 10:49:12;;;;;;;1999.90;999.90;;;14.40;72.30;;;;;;5054945;28;20033;-77
2023/05/02 10:51:40;;;;;;;1999.90;999.90;;;14.40;72.90;;;;;;5068075;28;20098;-77
2023/05/02 10:54:18;;;;;;;1999.90;999.90;;;14.50;73.40;;;;;;5071965;28;20077;-77
2023/05/02 10:57:04;;;;;;;1999.90;999.90;;;14.60;71.40;;;;;;5071668;28;20113;-73
2023/05/02 10:59:41;;;;;;;1999.90;999.90;;;15.00;73.00;;;;;;5071219;28;20032;-74
2023/05/02 11:02:22;;;;;;;1999.90;999.90;;;15.20;71.40;;;;;;5059851;28;20047;-75
2023/05/02 11:04:59;;;;;;;1999.90;999.90;;;16.20;69.00;;;;;;5068663;28;20569;-74
2023/05/02 11:07:24;;;;;;;1999.90;999.90;;;16.40;66.60;;;;;;5070919;28;20474;-74
2023/05/02 11:09:50;;;;;;;1999.90;999.90;;;16.60;65.20;;;;;;5070990;28;20069;-75
2023/05/02 11:12:46;;;;;;;1999.90;999.90;;;16.40;67.70;;;;;;5073154;28;20814;-75
2023/05/02 11:15:12;;;;;;;1999.90;999.90;;;16.10;67.50;;;;;;5065480;28;20095;-74
2023/05/02 11:18:00;;;;;;;1999.90;999.90;;;15.60;67.20;;;;;;5075225;28;20031;-74
2023/05/02 11:20:27;;;;;;;1999.90;999.90;;;15.40;68.80;;;;;;5053887;28;20446;-74
2023/05/02 11:22:54;;;;;;;1999.90;999.90;;;15.60;66.20;;;;;;5074052;28;20024;-74
2023/05/02 11:25:36;;;;;;;1999.90;999.90;;;15.40;67.10;;;;;;5073211;28;20040;-74
2023/05/02 11:28:05;;;;;;;1999.90;999.90;;;15.70;67.50;;;;;;5055566;28;20506;-74
2023/05/02 11:30:43;;;;;;;1999.90;999.90;;;15.90;65.90;;;;;;5069096;28;20121;-73
2023/05/02 11:33:14;;;;;;;1999.90;999.90;;;16.50;64.20;;;;;;5048989;28;20037;-74
2023/05/02 11:35:41;;;;;;;1999.90;999.90;;;16.50;63.40;;;;;;5074036;28;20070;-77
2023/05/02 11:38:13;;;;;;;1999.90;999.90;;;16.50;64.70;;;;;;5074370;28;20033;-73
2023/05/02 11:40:39;;;;;;;1999.90;999.90;;;16.40;64.20;;;;;;5062184;28;20033;-74
2023/05/02 11:43:15;;;;;;;1999.90;999.90;;;16.50;64.70;;;;;;5058641;28;20032;-73
2023/05/02 11:45:42;;;;;;;1999.90;999.90;;;17.10;63.10;;;;;;5070509;28;20041;-73
2023/05/02 11:48:09;;;;;;;1999.90;999.90;;;17.40;64.20;;;;;;5066356;28;20387;-73
2023/05/02 11:50:51;;;;;;;1999.90;999.90;;;17.80;60.40;;;;;;5052147;28;20531;-76
2023/05/02 11:53:21;;;;;;;1999.90;999.90;;;18.00;59.30;;;;;;5069047;28;20112;-77
2023/05/02 11:56:02;;;;;;;1999.90;999.90;;;17.80;63.20;;;;;;5049867;28;20033;-77
2023/05/02 11:58:31;;;;;;;1999.90;999.90;;;18.20;59.90;;;;;;5076519;28;20025;-76
2023/05/02 12:00:57;;;;;;;1999.90;999.90;;;20.00;57.50;;;;;;5072305;28;20033;-76
2023/05/02 12:03:31;;;;;;;1999.90;999.90;;;20.10;56.80;;;;;;5048608;28;20453;-78
2023/05/02 12:06:11;;;;;;;1999.90;999.90;;;20.60;53.20;;;;;;5060821;28;20124;-83
2023/05/02 12:08:38;;;;;;;1999.90;999.90;;;22.20;49.90;;;;;;5070741;28;20132;-78
2023/05/02 12:11:04;;;;;;;1999.90;999.90;;;20.40;50.40;;;;;;5049142;28;20041;-78